createdAt,value
2022-12-26T00:01:26.966Z,15.79
2022-12-26T00:03:56.219Z,15.74
2022-12-26T00:06:27.236Z,15.72
2022-12-26T00:08:56.431Z,15.64
2022-12-26T00:11:25.753Z,15.73
2022-12-26T00:14:01.176Z,15.68
2022-12-26T00:16:32.895Z,15.71
2022-12-26T00:19:01.058Z,15.67
2022-12-26T00:21:29.850Z,15.66
2022-12-26T00:24:00.329Z,15.62
2022-12-26T00:26:30.034Z,15.61
2022-12-26T00:29:00.272Z,15.52
2022-12-26T00:31:31.984Z,15.47
2022-12-26T00:34:00.437Z,15.41
2022-12-26T00:36:30.718Z,15.38
2022-12-26T00:39:00.870Z,15.31
2022-12-26T00:41:32.369Z,15.30
2022-12-26T00:44:03.468Z,15.27
2022-12-26T00:46:32.411Z,15.27
2022-12-26T00:49:04.457Z,15.26
2022-12-26T00:51:32.746Z,15.21
2022-12-26T00:54:00.807Z,15.19
2022-12-26T00:56:29.088Z,15.17
2022-12-26T00:58:57.775Z,15.14
2022-12-26T01:01:33.472Z,15.15
2022-12-26T01:04:02.116Z,15.18
2022-12-26T01:06:31.424Z,15.20
2022-12-26T01:09:00.118Z,15.19
2022-12-26T01:11:44.032Z,15.23
2022-12-26T01:14:15.945Z,15.24
2022-12-26T01:16:47.331Z,15.27
2022-12-26T01:19:15.975Z,15.27
2022-12-26T01:21:44.595Z,15.28
2022-12-26T01:24:15.488Z,15.26
2022-12-26T01:26:43.666Z,15.29
2022-12-26T01:29:11.975Z,15.35
2022-12-26T01:31:40.040Z,15.36
2022-12-26T01:34:09.473Z,15.39
2022-12-26T01:36:37.724Z,15.42
2022-12-26T01:39:05.678Z,15.42
2022-12-26T01:41:34.016Z,15.45
2022-12-26T01:44:05.457Z,15.49
2022-12-26T01:46:39.229Z,15.46
2022-12-26T01:49:15.089Z,15.46
2022-12-26T01:51:48.007Z,15.41
2022-12-26T01:54:39.122Z,15.47
2022-12-26T01:57:10.460Z,15.54
2022-12-26T01:59:41.729Z,15.58
2022-12-26T02:02:11.875Z,15.60
2022-12-26T02:05:04.771Z,15.64
2022-12-26T02:07:35.364Z,15.69
2022-12-26T02:10:05.271Z,15.66
2022-12-26T02:12:38.888Z,15.71
2022-12-26T02:15:12.785Z,15.91
2022-12-26T02:17:41.768Z,15.81
2022-12-26T02:20:20.356Z,15.90
2022-12-26T02:23:26.990Z,15.95
2022-12-26T02:26:21.773Z,15.98
2022-12-26T02:29:13.636Z,15.87
2022-12-26T02:31:56.143Z,15.75
2022-12-26T02:34:31.678Z,15.86
2022-12-26T02:37:14.335Z,15.73
2022-12-26T02:40:04.028Z,15.84
2022-12-26T02:42:43.026Z,15.91
2022-12-26T02:45:32.528Z,15.85
2022-12-26T02:48:13.517Z,15.88
2022-12-26T02:51:14.815Z,15.84
2022-12-26T02:54:09.861Z,15.86
2022-12-26T02:57:00.471Z,15.85
2022-12-26T02:59:57.573Z,15.94
2022-12-26T03:02:51.273Z,15.82
2022-12-26T03:05:44.572Z,15.83
2022-12-26T03:08:37.345Z,15.89
2022-12-26T03:11:23.779Z,15.87
2022-12-26T03:13:52.376Z,15.95
2022-12-26T03:16:43.660Z,15.95
2022-12-26T03:19:15.192Z,15.92
2022-12-26T03:21:46.851Z,15.84
2022-12-26T03:24:18.180Z,15.78
2022-12-26T03:26:51.831Z,15.96
2022-12-26T03:29:40.557Z,16.05
2022-12-26T03:32:10.708Z,15.96
2022-12-26T03:34:42.906Z,16.06
2022-12-26T03:37:48.705Z,16.04
2022-12-26T03:40:48.744Z,16.08
2022-12-26T03:43:44.564Z,15.98
2022-12-26T03:46:36.321Z,16.02
2022-12-26T03:49:28.603Z,15.89
2022-12-26T03:52:20.332Z,15.92
2022-12-26T03:55:13.079Z,15.91
2022-12-26T03:58:06.803Z,15.73
2022-12-26T04:00:55.300Z,15.84
2022-12-26T04:03:44.336Z,16.09
2022-12-26T04:06:37.032Z,16.05
2022-12-26T04:09:28.973Z,15.99
2022-12-26T04:12:18.862Z,15.96
2022-12-26T04:15:11.467Z,15.92
2022-12-26T04:18:03.506Z,15.89
2022-12-26T04:20:37.964Z,15.73
2022-12-26T04:23:28.327Z,15.73
2022-12-26T04:26:21.077Z,15.77
2022-12-26T04:29:09.006Z,15.67
2022-12-26T04:32:01.622Z,15.67
2022-12-26T04:34:54.245Z,15.75
2022-12-26T04:37:44.890Z,15.75
2022-12-26T04:40:38.816Z,15.69
2022-12-26T04:43:47.461Z,15.66
2022-12-26T04:46:18.589Z,15.65
2022-12-26T04:49:07.100Z,15.78
2022-12-26T04:51:35.619Z,15.74
2022-12-26T04:54:04.191Z,15.77
2022-12-26T04:56:32.464Z,15.84
2022-12-26T04:59:00.554Z,15.81
2022-12-26T05:01:47.629Z,15.87
2022-12-26T05:04:34.426Z,15.84
2022-12-26T05:07:18.473Z,15.80
2022-12-26T05:09:49.131Z,15.85
2022-12-26T05:12:17.826Z,15.81
2022-12-26T05:14:45.992Z,15.86
2022-12-26T05:17:33.491Z,15.89
2022-12-26T05:20:19.486Z,15.89
2022-12-26T05:23:07.252Z,15.87
2022-12-26T05:25:58.771Z,15.80
2022-12-26T05:28:42.710Z,15.86
2022-12-26T05:31:12.719Z,15.97
2022-12-26T05:34:00.257Z,16.00
2022-12-26T05:36:32.015Z,16.02
2022-12-26T05:39:00.660Z,15.96
2022-12-26T05:41:28.930Z,15.97
2022-12-26T05:43:56.870Z,16.05
2022-12-26T05:46:24.922Z,15.99
2022-12-26T05:48:54.603Z,16.00
2022-12-26T05:51:22.816Z,16.07
2022-12-26T05:53:51.698Z,16.08
2022-12-26T05:56:22.614Z,16.08
2022-12-26T05:58:55.322Z,16.04
2022-12-26T06:01:23.975Z,16.06
2022-12-26T06:03:55.450Z,16.04
2022-12-26T06:06:25.799Z,16.00
2022-12-26T06:08:56.808Z,15.96
2022-12-26T06:11:26.647Z,15.97
2022-12-26T06:13:55.818Z,15.94
2022-12-26T06:16:24.400Z,15.86
2022-12-26T06:18:54.907Z,15.87
2022-12-26T06:21:24.167Z,15.86
2022-12-26T06:23:52.236Z,15.86
2022-12-26T06:26:20.217Z,15.82
2022-12-26T06:28:48.599Z,15.81
2022-12-26T06:31:20.849Z,15.77
2022-12-26T06:33:50.618Z,15.79
2022-12-26T06:36:22.173Z,15.72
2022-12-26T06:38:51.462Z,15.75
2022-12-26T06:41:21.390Z,15.73
2022-12-26T06:43:49.945Z,15.76
2022-12-26T06:46:21.334Z,15.78
2022-12-26T06:48:49.577Z,15.76
2022-12-26T06:51:21.261Z,15.77
2022-12-26T06:53:49.686Z,15.78
2022-12-26T06:56:20.199Z,15.78
2022-12-26T06:58:48.754Z,15.87
2022-12-26T07:01:19.124Z,15.89
2022-12-26T07:03:51.873Z,15.89
2022-12-26T07:06:25.609Z,15.90
2022-12-26T07:08:54.706Z,15.89
2022-12-26T07:11:25.230Z,15.89
2022-12-26T07:13:57.101Z,15.95
2022-12-26T07:16:26.173Z,15.89
2022-12-26T07:18:55.262Z,16.03
2022-12-26T07:21:26.439Z,16.14
2022-12-26T07:23:56.058Z,16.21
2022-12-26T07:26:25.118Z,16.27
2022-12-26T07:28:54.994Z,16.23
2022-12-26T07:31:25.187Z,16.28
2022-12-26T07:33:54.693Z,16.16
2022-12-26T07:36:25.112Z,16.30
2022-12-26T07:38:53.560Z,16.26
2022-12-26T07:41:39.071Z,16.26
2022-12-26T07:44:08.001Z,16.28
2022-12-26T07:46:36.402Z,16.23
2022-12-26T07:49:05.680Z,16.22
2022-12-26T07:51:35.608Z,16.22
2022-12-26T07:54:10.468Z,16.25
2022-12-26T07:56:39.708Z,16.21
2022-12-26T07:59:07.988Z,16.18
2022-12-26T08:01:36.204Z,16.24
2022-12-26T08:04:04.961Z,16.24
2022-12-26T08:06:33.140Z,16.19
2022-12-26T08:09:02.603Z,16.29
2022-12-26T08:11:33.734Z,16.25
2022-12-26T08:14:02.198Z,16.38
2022-12-26T08:16:32.104Z,16.45
2022-12-26T08:19:03.882Z,16.44
2022-12-26T08:21:32.660Z,16.46
2022-12-26T08:24:20.131Z,16.56
2022-12-26T08:27:05.575Z,16.49
2022-12-26T08:29:40.478Z,16.47
2022-12-26T08:32:13.684Z,16.55
2022-12-26T08:34:48.767Z,16.64
2022-12-26T08:37:36.134Z,16.73
2022-12-26T08:40:07.548Z,16.77
2022-12-26T08:43:11.784Z,16.77
2022-12-26T08:45:39.496Z,16.79
2022-12-26T08:48:26.462Z,16.90
2022-12-26T08:51:00.914Z,16.89
2022-12-26T08:53:42.070Z,16.95
2022-12-26T08:56:15.269Z,16.98
2022-12-26T08:58:44.628Z,17.04
2022-12-26T09:01:22.144Z,17.13
2022-12-26T09:03:55.249Z,17.18
2022-12-26T09:06:23.867Z,17.25
2022-12-26T09:08:52.561Z,17.32
2022-12-26T09:11:26.725Z,17.32
2022-12-26T09:13:56.371Z,17.32
2022-12-26T09:16:30.456Z,17.42
2022-12-26T09:19:02.549Z,17.52
2022-12-26T09:21:32.030Z,17.47
2022-12-26T09:24:01.661Z,17.54
2022-12-26T09:26:31.488Z,17.43
2022-12-26T09:29:00.679Z,17.52
2022-12-26T09:31:31.135Z,17.55
2022-12-26T09:34:00.318Z,17.46
2022-12-26T09:36:32.067Z,17.45
2022-12-26T09:39:01.216Z,17.48
2022-12-26T09:41:44.583Z,17.32
2022-12-26T09:44:18.923Z,17.53
2022-12-26T09:46:57.573Z,17.60
2022-12-26T09:49:30.976Z,17.55
2022-12-26T09:52:03.189Z,17.64
2022-12-26T09:54:35.821Z,17.62
2022-12-26T09:57:15.277Z,17.57
2022-12-26T09:59:48.650Z,17.58
2022-12-26T10:02:20.741Z,17.59
2022-12-26T10:04:49.542Z,17.54
2022-12-26T10:07:26.562Z,17.61
2022-12-26T10:10:09.135Z,17.63
2022-12-26T10:12:43.577Z,17.57
2022-12-26T10:15:32.155Z,17.53
2022-12-26T10:18:13.243Z,17.47
2022-12-26T10:20:55.341Z,17.22
2022-12-26T10:23:43.895Z,17.32
2022-12-26T10:26:15.464Z,17.20
2022-12-26T10:28:48.660Z,16.67
2022-12-26T10:31:22.106Z,16.87
2022-12-26T10:33:57.445Z,16.86
2022-12-26T10:36:33.622Z,16.94
2022-12-26T10:39:04.264Z,16.88
2022-12-26T10:41:38.928Z,17.02
2022-12-26T10:44:11.574Z,16.82
2022-12-26T10:47:15.371Z,16.96
2022-12-26T10:49:45.999Z,16.82
2022-12-26T10:52:15.389Z,16.76
2022-12-26T10:54:43.592Z,16.45
2022-12-26T10:57:11.602Z,16.56
2022-12-26T10:59:46.342Z,16.53
2022-12-26T11:02:23.598Z,16.61
2022-12-26T11:05:33.438Z,16.42
2022-12-26T11:07:53.165Z,16.42
2022-12-26T11:10:25.543Z,16.45
2022-12-26T11:12:55.627Z,16.48
2022-12-26T11:15:32.272Z,16.43
2022-12-26T11:18:18.385Z,16.45
2022-12-26T11:20:47.763Z,16.33
2022-12-26T11:23:25.717Z,16.43
2022-12-26T11:25:56.265Z,16.30
2022-12-26T11:28:31.863Z,16.39
2022-12-26T11:31:03.211Z,16.35
2022-12-26T11:33:34.711Z,16.04
2022-12-26T11:36:09.551Z,16.23
2022-12-26T11:38:49.517Z,16.10
2022-12-26T11:41:32.868Z,16.27
2022-12-26T11:44:12.702Z,16.18
2022-12-26T11:46:45.605Z,16.11
2022-12-26T11:49:20.320Z,16.18
2022-12-26T11:51:55.639Z,15.91
2022-12-26T11:54:34.318Z,16.01
2022-12-26T11:57:20.420Z,16.13
2022-12-26T11:59:50.062Z,16.05
2022-12-26T12:02:25.302Z,16.18
2022-12-26T12:04:56.453Z,16.32
2022-12-26T12:07:47.544Z,16.42
2022-12-26T12:10:49.188Z,16.43
2022-12-26T12:13:28.688Z,16.51
2022-12-26T12:16:07.069Z,16.56
2022-12-26T12:18:50.670Z,16.64
2022-12-26T12:21:29.053Z,16.68
2022-12-26T12:24:14.246Z,16.64
2022-12-26T12:26:54.859Z,16.70
2022-12-26T12:29:40.098Z,16.75
2022-12-26T12:32:13.912Z,16.78
2022-12-26T12:34:58.764Z,16.75
2022-12-26T12:37:39.520Z,16.63
2022-12-26T12:40:23.978Z,16.63
2022-12-26T12:42:59.073Z,16.53
2022-12-26T12:45:32.647Z,16.54
2022-12-26T12:48:29.023Z,16.54
2022-12-26T12:51:08.986Z,16.57
2022-12-26T12:53:55.146Z,16.60
2022-12-26T12:56:38.357Z,16.60
2022-12-26T12:59:21.001Z,16.52
2022-12-26T13:01:54.142Z,16.54
2022-12-26T13:04:27.165Z,16.69
2022-12-26T13:07:00.794Z,16.62
2022-12-26T13:09:37.890Z,16.53
2022-12-26T13:12:09.547Z,16.50
2022-12-26T13:14:42.262Z,16.59
2022-12-26T13:17:23.491Z,16.52
2022-12-26T13:20:02.335Z,16.46
2022-12-26T13:22:50.727Z,16.53
2022-12-26T13:25:21.041Z,16.51
2022-12-26T13:27:52.399Z,16.54
2022-12-26T13:30:20.785Z,16.47
2022-12-26T13:32:49.468Z,16.60
2022-12-26T13:35:52.287Z,16.60
2022-12-26T13:38:23.417Z,16.44
2022-12-26T13:41:17.811Z,16.52
2022-12-26T13:44:00.696Z,16.60
2022-12-26T13:46:53.874Z,16.66
2022-12-26T13:49:36.045Z,16.67
2022-12-26T13:52:26.343Z,16.63
2022-12-26T13:55:31.040Z,16.71
2022-12-26T13:58:30.769Z,16.66
2022-12-26T14:01:07.418Z,16.48
2022-12-26T14:03:50.450Z,16.59
2022-12-26T14:06:41.716Z,16.54
2022-12-26T14:09:21.778Z,16.43
2022-12-26T14:12:20.860Z,16.33
2022-12-26T14:15:06.756Z,16.47
2022-12-26T14:17:43.974Z,16.47
2022-12-26T14:20:23.779Z,16.47
2022-12-26T14:23:03.827Z,16.42
2022-12-26T14:25:43.627Z,16.45
2022-12-26T14:28:24.369Z,16.37
2022-12-26T14:31:06.435Z,16.34
2022-12-26T14:33:41.169Z,16.33
2022-12-26T14:36:22.273Z,16.29
2022-12-26T14:38:56.467Z,16.29
2022-12-26T14:42:26.944Z,16.22
2022-12-26T14:44:59.723Z,16.15
2022-12-26T14:47:41.636Z,16.00
2022-12-26T14:50:45.114Z,15.95
2022-12-26T14:53:31.024Z,15.88
2022-12-26T14:56:00.853Z,15.78
2022-12-26T14:58:48.042Z,15.75
2022-12-26T15:01:48.756Z,15.71
2022-12-26T15:04:37.114Z,15.61
2022-12-26T15:07:37.384Z,15.45
2022-12-26T15:10:43.505Z,15.38
2022-12-26T15:13:44.158Z,15.21
2022-12-26T15:16:26.453Z,15.05
2022-12-26T15:19:30.188Z,15.02
2022-12-26T15:22:25.668Z,14.99
2022-12-26T15:25:26.188Z,14.93
2022-12-26T15:28:20.334Z,14.92
2022-12-26T15:31:08.026Z,14.87
2022-12-26T15:33:41.686Z,14.91
2022-12-26T15:36:22.274Z,14.85
2022-12-26T15:38:57.386Z,14.91
2022-12-26T15:41:36.505Z,14.91
2022-12-26T15:44:19.719Z,14.91
2022-12-26T15:46:58.386Z,14.90
2022-12-26T15:49:49.797Z,14.91
2022-12-26T15:52:28.057Z,14.98
2022-12-26T15:55:26.521Z,14.93
2022-12-26T15:58:01.736Z,14.98
2022-12-26T16:00:33.231Z,14.92
2022-12-26T16:03:15.352Z,14.95
2022-12-26T16:05:52.940Z,14.95
2022-12-26T16:08:58.254Z,14.98
2022-12-26T16:11:31.276Z,15.01
2022-12-26T16:14:02.818Z,15.03
2022-12-26T16:16:34.597Z,15.08
2022-12-26T16:19:19.263Z,15.15
2022-12-26T16:22:16.341Z,15.18
2022-12-26T16:24:47.691Z,15.15
2022-12-26T16:27:18.951Z,15.21
2022-12-26T16:29:49.976Z,15.19
2022-12-26T16:32:21.027Z,15.19
2022-12-26T16:34:50.278Z,15.17
2022-12-26T16:37:21.172Z,15.15
2022-12-26T16:40:15.918Z,15.12
2022-12-26T16:42:46.098Z,15.12
2022-12-26T16:45:18.741Z,15.02
2022-12-26T16:47:47.790Z,15.00
2022-12-26T16:50:19.781Z,15.01
2022-12-26T16:52:50.912Z,14.98
2022-12-26T16:55:36.707Z,15.02
2022-12-26T16:58:14.356Z,15.06
2022-12-26T17:00:49.860Z,15.01
2022-12-26T17:03:28.585Z,15.13
2022-12-26T17:05:57.336Z,15.15
2022-12-26T17:08:26.114Z,15.24
2022-12-26T17:10:55.611Z,15.32
2022-12-26T17:13:27.588Z,15.30
2022-12-26T17:15:59.096Z,15.30
2022-12-26T17:18:40.423Z,15.34
2022-12-26T17:21:28.974Z,15.37
2022-12-26T17:24:12.524Z,15.40
2022-12-26T17:26:43.646Z,15.41
2022-12-26T17:29:37.978Z,15.43
2022-12-26T17:32:09.733Z,15.39
2022-12-26T17:34:40.687Z,15.46
2022-12-26T17:37:21.809Z,15.49
2022-12-26T17:40:02.421Z,15.50
2022-12-26T17:42:42.007Z,15.51
2022-12-26T17:45:15.425Z,15.47
2022-12-26T17:47:43.573Z,15.50
2022-12-26T17:50:12.407Z,15.46
2022-12-26T17:52:40.986Z,15.42
2022-12-26T17:55:16.620Z,15.25
2022-12-26T17:57:46.436Z,15.32
2022-12-26T18:00:20.588Z,14.67
2022-12-26T18:02:49.149Z,14.61
2022-12-26T18:05:18.109Z,14.59
2022-12-26T18:07:47.411Z,13.94
2022-12-26T18:10:19.520Z,14.07
2022-12-26T18:12:49.300Z,14.27
2022-12-26T18:15:19.344Z,14.20
2022-12-26T18:17:50.304Z,14.25
2022-12-26T18:20:26.952Z,14.22
2022-12-26T18:22:56.075Z,14.27
2022-12-26T18:25:27.817Z,14.20
2022-12-26T18:27:57.423Z,14.06
2022-12-26T18:30:27.864Z,14.17
2022-12-26T18:32:59.187Z,14.24
2022-12-26T18:35:33.344Z,14.22
2022-12-26T18:38:05.386Z,14.10
2022-12-26T18:40:36.440Z,13.96
2022-12-26T18:43:07.697Z,13.81
2022-12-26T18:45:37.874Z,13.55
2022-12-26T18:48:07.199Z,13.70
2022-12-26T18:50:36.704Z,13.67
2022-12-26T18:53:04.790Z,13.76
2022-12-26T18:55:33.079Z,13.65
2022-12-26T18:58:01.361Z,13.44
2022-12-26T19:00:31.378Z,13.46
2022-12-26T19:02:59.289Z,13.59
2022-12-26T19:05:31.134Z,13.49
2022-12-26T19:07:59.998Z,13.21
2022-12-26T19:10:30.563Z,13.14
2022-12-26T19:13:05.641Z,13.28
2022-12-26T19:15:36.955Z,13.20
2022-12-26T19:18:05.912Z,13.23
2022-12-26T19:20:39.015Z,13.09
2022-12-26T19:23:10.417Z,12.82
2022-12-26T19:25:38.644Z,13.01
2022-12-26T19:28:06.592Z,12.71
2022-12-26T19:30:39.057Z,12.78
2022-12-26T19:33:07.938Z,12.83
2022-12-26T19:35:36.088Z,12.68
2022-12-26T19:38:04.147Z,12.80
2022-12-26T19:40:32.457Z,12.55
2022-12-26T19:43:00.516Z,12.81
2022-12-26T19:45:28.567Z,12.48
2022-12-26T19:47:58.456Z,12.50
2022-12-26T19:50:26.555Z,12.28
2022-12-26T19:52:54.475Z,12.49
2022-12-26T19:55:23.080Z,12.60
2022-12-26T19:57:51.081Z,12.28
2022-12-26T20:00:20.689Z,12.40
2022-12-26T20:02:49.178Z,12.42
2022-12-26T20:05:18.656Z,12.44
2022-12-26T20:07:46.672Z,12.60
2022-12-26T20:10:15.042Z,12.45
2022-12-26T20:12:43.131Z,12.46
2022-12-26T20:15:11.634Z,12.48
2022-12-26T20:17:40.104Z,12.49
2022-12-26T20:20:08.838Z,12.55
2022-12-26T20:22:38.347Z,12.50
2022-12-26T20:25:09.925Z,12.42
2022-12-26T20:27:37.983Z,12.36
2022-12-26T20:30:08.131Z,12.52
2022-12-26T20:32:36.492Z,12.45
2022-12-26T20:35:04.988Z,12.30
2022-12-26T20:37:33.293Z,12.32
2022-12-26T20:40:02.659Z,12.34
2022-12-26T20:42:30.627Z,12.24
2022-12-26T20:44:58.844Z,12.12
2022-12-26T20:47:26.821Z,12.27
2022-12-26T20:49:54.724Z,12.27
2022-12-26T20:52:22.930Z,12.26
2022-12-26T20:54:50.876Z,12.34
2022-12-26T20:57:20.214Z,12.27
2022-12-26T20:59:48.810Z,12.18
2022-12-26T21:02:17.164Z,12.07
2022-12-26T21:04:45.285Z,12.10
2022-12-26T21:07:13.567Z,12.06
2022-12-26T21:09:46.225Z,11.92
2022-12-26T21:12:15.110Z,11.88
2022-12-26T21:14:44.524Z,11.86
2022-12-26T21:17:17.984Z,11.80
2022-12-26T21:19:46.565Z,11.96
2022-12-26T21:22:14.537Z,11.91
2022-12-26T21:24:42.697Z,11.91
2022-12-26T21:27:11.028Z,11.91
2022-12-26T21:29:40.167Z,11.81
2022-12-26T21:32:09.511Z,11.44
2022-12-26T21:34:38.971Z,11.74
2022-12-26T21:37:24.566Z,11.55
2022-12-26T21:39:52.831Z,11.40
2022-12-26T21:42:20.911Z,11.20
2022-12-26T21:44:49.202Z,11.26
2022-12-26T21:47:19.059Z,11.04
2022-12-26T21:49:47.131Z,11.11
2022-12-26T21:52:15.187Z,11.14
2022-12-26T21:55:01.193Z,11.01
2022-12-26T21:57:30.667Z,11.25
2022-12-26T21:59:59.736Z,11.04
2022-12-26T22:02:49.428Z,11.03
2022-12-26T22:05:20.492Z,11.28
2022-12-26T22:07:49.330Z,11.29
2022-12-26T22:10:32.091Z,11.44
2022-12-26T22:13:00.988Z,11.33
2022-12-26T22:15:46.956Z,11.32
2022-12-26T22:18:16.562Z,11.30
2022-12-26T22:20:46.113Z,11.19
2022-12-26T22:23:14.398Z,11.34
2022-12-26T22:25:42.492Z,11.29
2022-12-26T22:28:11.362Z,11.38
2022-12-26T22:30:39.374Z,11.50
2022-12-26T22:33:07.290Z,11.33
2022-12-26T22:35:37.099Z,11.31
2022-12-26T22:38:05.224Z,11.13
2022-12-26T22:40:33.232Z,11.34
2022-12-26T22:43:01.512Z,11.34
2022-12-26T22:45:29.822Z,11.26
2022-12-26T22:47:57.901Z,11.33
2022-12-26T22:50:26.391Z,11.10
2022-12-26T22:52:55.783Z,11.14
2022-12-26T22:55:23.767Z,11.00
2022-12-26T22:57:53.087Z,11.17
2022-12-26T23:00:22.332Z,11.21
2022-12-26T23:02:50.672Z,11.08
2022-12-26T23:05:19.679Z,11.27
2022-12-26T23:07:48.239Z,11.10
2022-12-26T23:10:22.250Z,11.04
2022-12-26T23:12:51.951Z,10.84
2022-12-26T23:15:22.300Z,11.00
2022-12-26T23:18:17.857Z,11.23
2022-12-26T23:21:04.068Z,11.03
2022-12-26T23:23:32.873Z,11.38
2022-12-26T23:26:02.589Z,11.26
2022-12-26T23:28:48.169Z,11.17
2022-12-26T23:31:16.643Z,11.30
2022-12-26T23:33:44.846Z,11.30
2022-12-26T23:36:13.052Z,11.40
2022-12-26T23:38:41.418Z,11.45
2022-12-26T23:41:10.907Z,11.45
2022-12-26T23:43:39.247Z,11.49
2022-12-26T23:46:10.791Z,11.48
2022-12-26T23:48:39.066Z,11.46
2022-12-26T23:51:09.246Z,11.35
2022-12-26T23:53:37.741Z,11.34
2022-12-26T23:56:08.666Z,11.44
2022-12-26T23:58:40.114Z,11.31
